Terminal Aerodrome Forecast
Issued by NWS

Home | Current Version | Previous Version | Graphics & Text | Print | Product List | Glossary On
Versions: 1 2 3 4 5 6 7 8 9 10 11 12 13 14 15 16 17 18 19
584
FTUS43 KABR 170520
TAFATY
TAF
KATY 170520Z 1706/1806 VRB06KT 1/4SM FZFG VV001
      TEMPO 1706/1710 2SM BR VV002
     FM171400 26004KT 2SM BR BKN003
     FM171600 25005KT P6SM FEW008
     FM171900 21007KT P6SM FEW150=

USA.gov is the U.S. government's official web portal to all federal, state and local government web resources and services.